createdAt,value
2018-07-01T00:00:29.201Z,23.54
2018-07-01T00:01:29.196Z,23.54
2018-07-01T00:02:29.192Z,23.55
2018-07-01T00:03:29.181Z,23.51
2018-07-01T00:04:29.178Z,23.54
2018-07-01T00:05:29.167Z,23.51
2018-07-01T00:06:29.161Z,23.54
2018-07-01T00:07:29.156Z,23.51
2018-07-01T00:08:29.148Z,23.49
2018-07-01T00:09:29.142Z,23.51
2018-07-01T00:10:29.137Z,23.44
2018-07-01T00:11:29.129Z,23.42
2018-07-01T00:12:29.123Z,23.40
2018-07-01T00:13:29.117Z,23.36
2018-07-01T00:14:29.109Z,23.32
2018-07-01T00:15:29.102Z,23.28
2018-07-01T00:16:29.097Z,23.26
2018-07-01T00:17:29.089Z,23.29
2018-07-01T00:18:29.084Z,23.42
2018-07-01T00:19:29.077Z,23.32
2018-07-01T00:20:29.071Z,23.33
2018-07-01T00:21:29.065Z,23.37
2018-07-01T00:22:29.060Z,23.39
2018-07-01T00:23:29.051Z,23.32
2018-07-01T00:24:29.046Z,23.34
2018-07-01T00:25:29.038Z,23.32
2018-07-01T00:26:29.036Z,23.32
2018-07-01T00:27:29.026Z,23.36
2018-07-01T00:28:29.033Z,23.37
2018-07-01T00:29:29.016Z,23.39
2018-07-01T00:30:29.019Z,23.42
2018-07-01T00:31:29.001Z,23.44
2018-07-01T00:32:28.995Z,23.49
2018-07-01T00:33:28.989Z,23.47
2018-07-01T00:34:29.005Z,23.45
2018-07-01T00:35:28.976Z,23.42
2018-07-01T00:36:28.971Z,23.47
2018-07-01T00:37:28.970Z,23.45
2018-07-01T00:38:28.957Z,23.45
2018-07-01T00:39:28.954Z,23.48
2018-07-01T00:40:28.988Z,23.42
2018-07-01T00:41:28.940Z,23.42
2018-07-01T00:42:28.933Z,23.48
2018-07-01T00:43:28.925Z,23.49
2018-07-01T00:44:28.919Z,23.54
2018-07-01T00:45:29.047Z,23.59
2018-07-01T00:46:28.954Z,23.56
2018-07-01T00:47:28.898Z,23.55
2018-07-01T00:48:28.895Z,23.56
2018-07-01T00:49:28.894Z,23.56
2018-07-01T00:50:28.885Z,23.62
2018-07-01T00:51:28.876Z,23.62
2018-07-01T00:52:28.870Z,23.63
2018-07-01T00:53:28.864Z,23.67
2018-07-01T00:54:28.857Z,23.63
2018-07-01T00:55:28.850Z,23.66
2018-07-01T00:56:28.845Z,23.66
2018-07-01T00:57:28.995Z,23.71
2018-07-01T00:58:28.834Z,23.64
2018-07-01T00:59:28.826Z,23.59
2018-07-01T01:00:28.822Z,23.66
2018-07-01T01:01:28.816Z,23.64
2018-07-01T01:02:28.808Z,23.55
2018-07-01T01:03:28.854Z,23.66
2018-07-01T01:04:28.796Z,23.59
2018-07-01T01:05:28.790Z,23.64
2018-07-01T01:06:28.786Z,23.66
2018-07-01T01:07:28.780Z,23.70
2018-07-01T01:08:28.774Z,23.67
2018-07-01T01:09:28.768Z,23.66
2018-07-01T01:10:28.760Z,23.71
2018-07-01T01:11:28.754Z,23.70
2018-07-01T01:12:28.748Z,23.70
2018-07-01T01:13:28.746Z,23.58
2018-07-01T01:14:28.737Z,23.70
2018-07-01T01:15:28.729Z,23.66
2018-07-01T01:16:28.724Z,23.77
2018-07-01T01:17:28.719Z,23.71
2018-07-01T01:18:28.712Z,23.69
2018-07-01T01:19:28.707Z,23.69
2018-07-01T01:20:28.701Z,23.63
2018-07-01T01:21:28.694Z,23.64
2018-07-01T01:22:28.689Z,23.52
2018-07-01T01:23:28.682Z,23.55
2018-07-01T01:24:28.679Z,23.54
2018-07-01T01:25:28.675Z,23.47
2018-07-01T01:26:28.668Z,23.49
2018-07-01T01:27:28.760Z,23.44
2018-07-01T01:28:28.652Z,23.49
2018-07-01T01:29:28.649Z,23.48
2018-07-01T01:30:28.640Z,23.52
2018-07-01T01:31:28.634Z,23.51
2018-07-01T01:32:28.629Z,23.59
2018-07-01T01:33:28.624Z,23.54
2018-07-01T01:34:28.616Z,23.67
2018-07-01T01:35:28.610Z,23.58
2018-07-01T01:36:28.603Z,23.58
2018-07-01T01:37:28.601Z,23.64
2018-07-01T01:38:28.681Z,23.66
2018-07-01T01:39:28.586Z,23.67
2018-07-01T01:40:28.580Z,23.63
2018-07-01T01:41:28.576Z,23.59
2018-07-01T01:42:28.568Z,23.59
2018-07-01T01:43:28.563Z,23.55
2018-07-01T01:44:28.558Z,23.51
2018-07-01T01:45:28.553Z,23.42
2018-07-01T01:46:28.545Z,23.37
2018-07-01T01:47:28.539Z,23.32
2018-07-01T01:48:28.534Z,23.37
2018-07-01T01:49:28.526Z,23.29
2018-07-01T01:50:28.524Z,23.36
2018-07-01T01:51:28.516Z,23.28
2018-07-01T01:52:28.553Z,23.33
2018-07-01T01:53:28.503Z,23.20
2018-07-01T01:54:28.493Z,23.34
2018-07-01T01:55:28.490Z,23.21
2018-07-01T01:56:28.485Z,23.20
2018-07-01T01:57:28.480Z,23.32
2018-07-01T01:58:28.474Z,23.21
2018-07-01T01:59:28.467Z,23.33
2018-07-01T02:00:28.462Z,23.28
2018-07-01T02:01:28.459Z,23.33
2018-07-01T02:02:28.449Z,23.33
2018-07-01T02:03:28.444Z,23.26
2018-07-01T02:04:28.438Z,23.21
2018-07-01T02:05:28.432Z,23.13
2018-07-01T02:06:28.463Z,23.13
2018-07-01T02:07:28.422Z,23.14
2018-07-01T02:08:28.413Z,23.13
2018-07-01T02:09:28.408Z,23.07
2018-07-01T02:10:28.398Z,23.18
2018-07-01T02:11:28.396Z,23.07
2018-07-01T02:12:28.388Z,23.08
2018-07-01T02:13:28.383Z,23.07
2018-07-01T02:14:28.375Z,23.08
2018-07-01T02:15:28.370Z,23.10
2018-07-01T02:16:28.365Z,23.16
2018-07-01T02:17:28.360Z,23.14
2018-07-01T02:18:28.352Z,23.11
2018-07-01T02:19:28.345Z,23.13
2018-07-01T02:20:28.338Z,23.08
2018-07-01T02:21:28.334Z,23.01
2018-07-01T02:22:28.327Z,23.02
2018-07-01T02:23:28.322Z,22.99
2018-07-01T02:24:28.331Z,22.96
2018-07-01T02:25:28.313Z,22.98
2018-07-01T02:26:28.306Z,23.01
2018-07-01T02:27:28.296Z,23.06
2018-07-01T02:28:28.291Z,23.06
2018-07-01T02:29:28.286Z,23.14
2018-07-01T02:30:28.346Z,23.07
2018-07-01T02:31:28.274Z,23.10
2018-07-01T02:32:28.267Z,23.07
2018-07-01T02:33:28.261Z,23.13
2018-07-01T02:34:28.252Z,23.18
2018-07-01T02:35:28.269Z,23.29
2018-07-01T02:36:28.242Z,23.29
2018-07-01T02:37:28.238Z,23.28
2018-07-01T02:38:28.233Z,23.28
2018-07-01T02:39:28.225Z,23.26
2018-07-01T02:40:28.222Z,23.32
2018-07-01T02:41:28.214Z,23.34
2018-07-01T02:42:28.205Z,23.28
2018-07-01T02:43:28.204Z,23.29
2018-07-01T02:44:28.194Z,23.32
2018-07-01T02:45:28.187Z,23.40
2018-07-01T02:46:28.180Z,23.44
2018-07-01T02:47:28.173Z,23.34
2018-07-01T02:48:28.169Z,23.39
2018-07-01T02:49:28.163Z,23.44
2018-07-01T02:50:28.156Z,23.47
2018-07-01T02:51:28.151Z,23.39
2018-07-01T02:52:28.146Z,23.44
2018-07-01T02:53:28.140Z,23.44
2018-07-01T02:54:28.133Z,23.49
2018-07-01T02:55:28.134Z,23.44
2018-07-01T02:56:28.121Z,23.44
2018-07-01T02:57:28.114Z,23.36
2018-07-01T02:58:28.109Z,23.32
2018-07-01T02:59:28.103Z,23.34
2018-07-01T03:00:28.098Z,23.37
2018-07-01T03:01:28.096Z,23.47
2018-07-01T03:02:28.097Z,23.47
2018-07-01T03:03:28.078Z,23.32
2018-07-01T03:04:28.073Z,23.48
2018-07-01T03:05:28.069Z,23.34
2018-07-01T03:06:28.059Z,23.47
2018-07-01T03:07:28.056Z,23.47
2018-07-01T03:08:28.054Z,23.49
2018-07-01T03:09:28.042Z,23.39
2018-07-01T03:10:28.039Z,23.40
2018-07-01T03:11:28.031Z,23.37
2018-07-01T03:12:28.023Z,23.34
2018-07-01T03:13:28.080Z,23.37
2018-07-01T03:14:28.013Z,23.36
2018-07-01T03:15:28.008Z,23.37
2018-07-01T03:16:28.003Z,23.44
2018-07-01T03:17:27.994Z,23.29
2018-07-01T03:18:27.996Z,23.32
2018-07-01T03:19:27.985Z,23.36
2018-07-01T03:20:27.975Z,23.32
2018-07-01T03:21:27.972Z,23.25
2018-07-01T03:22:27.965Z,23.33
2018-07-01T03:23:27.960Z,23.28
2018-07-01T03:24:27.954Z,23.33
2018-07-01T03:25:27.948Z,23.21
2018-07-01T03:26:27.944Z,23.28
2018-07-01T03:27:27.933Z,23.29
2018-07-01T03:28:27.930Z,23.25
2018-07-01T03:29:27.924Z,23.26
2018-07-01T03:30:27.920Z,23.25
2018-07-01T03:31:27.976Z,23.32
2018-07-01T03:32:27.904Z,23.34
2018-07-01T03:33:27.909Z,23.29
2018-07-01T03:34:27.892Z,23.33
2018-07-01T03:35:27.886Z,23.26
2018-07-01T03:36:27.881Z,23.26
2018-07-01T03:37:27.874Z,23.29
2018-07-01T03:38:27.871Z,23.28
2018-07-01T03:39:27.862Z,23.34
2018-07-01T03:40:27.859Z,23.20
2018-07-01T03:41:27.851Z,23.21
2018-07-01T03:42:27.845Z,23.07
2018-07-01T03:43:27.838Z,23.17
2018-07-01T03:44:27.833Z,23.13
2018-07-01T03:45:27.829Z,23.13
2018-07-01T03:46:27.820Z,23.10
2018-07-01T03:47:27.816Z,23.18
2018-07-01T03:48:27.808Z,23.13
2018-07-01T03:49:27.801Z,23.14
2018-07-01T03:50:27.796Z,23.13
2018-07-01T03:51:27.790Z,23.20
2018-07-01T03:52:27.781Z,23.13
2018-07-01T03:53:27.778Z,23.28
2018-07-01T03:54:27.772Z,23.23
2018-07-01T03:55:27.766Z,23.26
2018-07-01T03:56:27.760Z,23.34
2018-07-01T03:57:27.755Z,23.23
2018-07-01T03:58:27.793Z,23.32
2018-07-01T03:59:27.743Z,23.33
2018-07-01T04:00:27.823Z,23.25
2018-07-01T04:01:27.732Z,23.29
2018-07-01T04:02:27.723Z,23.26
2018-07-01T04:03:27.728Z,23.21
2018-07-01T04:04:27.712Z,23.28
2018-07-01T04:05:27.709Z,23.26
2018-07-01T04:06:27.701Z,23.20
2018-07-01T04:07:27.694Z,23.23
2018-07-01T04:08:27.688Z,23.17
2018-07-01T04:09:27.688Z,23.28
2018-07-01T04:10:27.676Z,23.25
2018-07-01T04:11:27.672Z,23.28
2018-07-01T04:12:27.666Z,23.20
2018-07-01T04:13:27.659Z,23.33
2018-07-01T04:14:27.653Z,23.26
2018-07-01T04:15:27.645Z,23.29
2018-07-01T04:16:27.643Z,23.28
2018-07-01T04:17:27.635Z,23.25
2018-07-01T04:18:27.627Z,23.32
2018-07-01T04:19:27.624Z,23.21
2018-07-01T04:20:27.618Z,23.26
2018-07-01T04:21:27.612Z,23.29
2018-07-01T04:22:27.603Z,23.26
2018-07-01T04:23:27.598Z,23.28
2018-07-01T04:24:27.592Z,23.23
2018-07-01T04:25:27.589Z,23.16
2018-07-01T04:26:27.580Z,23.28
2018-07-01T04:27:27.574Z,23.28
2018-07-01T04:28:27.567Z,23.28
2018-07-01T04:29:27.562Z,23.28
2018-07-01T04:30:27.557Z,23.32
2018-07-01T04:31:27.551Z,23.34
2018-07-01T04:32:27.544Z,23.36
2018-07-01T04:33:27.538Z,23.33
2018-07-01T04:34:27.532Z,23.29
2018-07-01T04:35:27.526Z,23.42
2018-07-01T04:36:27.520Z,23.33
2018-07-01T04:37:27.515Z,23.34
2018-07-01T04:38:27.507Z,23.33
2018-07-01T04:39:27.502Z,23.42
2018-07-01T04:40:27.496Z,23.28
2018-07-01T04:41:27.490Z,23.32
2018-07-01T04:42:27.489Z,23.28
2018-07-01T04:43:27.478Z,23.37
2018-07-01T04:44:27.474Z,23.42
2018-07-01T04:45:27.470Z,23.37
2018-07-01T04:46:27.463Z,23.26
2018-07-01T04:47:27.455Z,23.39
2018-07-01T04:48:27.454Z,23.26
2018-07-01T04:49:27.442Z,23.29
2018-07-01T04:50:27.435Z,23.28
2018-07-01T04:51:27.435Z,23.20
2018-07-01T04:52:27.425Z,23.33
2018-07-01T04:53:27.419Z,23.32
2018-07-01T04:54:27.411Z,23.28
2018-07-01T04:55:27.421Z,23.34
2018-07-01T04:56:27.400Z,23.39
2018-07-01T04:57:27.393Z,23.33
2018-07-01T04:58:27.386Z,23.32
2018-07-01T04:59:27.384Z,23.34
2018-07-01T05:00:27.382Z,23.28
2018-07-01T05:01:27.372Z,23.25
2018-07-01T05:02:27.404Z,23.29
2018-07-01T05:03:27.358Z,23.32
2018-07-01T05:04:27.352Z,23.34
2018-07-01T05:05:27.348Z,23.32
2018-07-01T05:06:27.341Z,23.29
2018-07-01T05:07:27.334Z,23.33
2018-07-01T05:08:27.328Z,23.37
2018-07-01T05:09:27.321Z,23.37
2018-07-01T05:10:27.317Z,23.39
2018-07-01T05:11:27.312Z,23.48
2018-07-01T05:12:27.306Z,23.42
2018-07-01T05:13:27.301Z,23.47
2018-07-01T05:14:27.300Z,23.36
2018-07-01T05:15:27.286Z,23.40
2018-07-01T05:16:27.281Z,23.51
2018-07-01T05:17:27.275Z,23.36
2018-07-01T05:18:27.270Z,23.44
2018-07-01T05:19:27.266Z,23.42
2018-07-01T05:20:27.260Z,23.49
2018-07-01T05:21:27.251Z,23.45
2018-07-01T05:22:27.246Z,23.44
2018-07-01T05:23:27.239Z,23.36
2018-07-01T05:24:27.233Z,23.42
2018-07-01T05:25:27.227Z,23.45
2018-07-01T05:26:27.221Z,23.40
2018-07-01T05:27:27.261Z,23.42
2018-07-01T05:28:27.216Z,23.40
2018-07-01T05:29:27.204Z,23.42
2018-07-01T05:30:27.196Z,23.45
2018-07-01T05:31:27.194Z,23.36
2018-07-01T05:32:27.186Z,23.28
2018-07-01T05:33:27.181Z,23.29
2018-07-01T05:34:27.172Z,23.32
2018-07-01T05:35:27.169Z,23.32
2018-07-01T05:36:27.161Z,23.45
2018-07-01T05:37:27.156Z,23.33
2018-07-01T05:38:27.149Z,23.32
2018-07-01T05:39:27.144Z,23.37
2018-07-01T05:40:27.137Z,23.39
2018-07-01T05:41:27.131Z,23.34
2018-07-01T05:42:27.126Z,23.34
2018-07-01T05:43:27.120Z,23.29
2018-07-01T05:44:27.115Z,23.36
2018-07-01T05:45:27.107Z,23.26
2018-07-01T05:46:27.105Z,23.25
2018-07-01T05:47:27.094Z,23.28
2018-07-01T05:48:27.090Z,23.26
2018-07-01T05:49:27.100Z,23.37
2018-07-01T05:50:27.077Z,23.44
2018-07-01T05:51:27.072Z,23.28
2018-07-01T05:52:27.067Z,23.32
2018-07-01T05:53:27.058Z,23.36
2018-07-01T05:54:27.052Z,23.29
2018-07-01T05:55:27.047Z,23.26
2018-07-01T05:56:27.045Z,23.28
2018-07-01T05:57:27.034Z,23.32
2018-07-01T05:58:27.029Z,23.32
2018-07-01T05:59:27.025Z,23.32
2018-07-01T06:00:27.018Z,23.34
2018-07-01T06:01:27.014Z,23.44
2018-07-01T06:02:27.005Z,23.33
2018-07-01T06:03:27.014Z,23.40
2018-07-01T06:04:26.993Z,23.44
2018-07-01T06:05:26.988Z,23.39
2018-07-01T06:06:26.982Z,23.44
2018-07-01T06:07:26.975Z,23.51
2018-07-01T06:08:26.970Z,23.47
2018-07-01T06:09:26.964Z,23.58
2018-07-01T06:10:26.957Z,23.58
2018-07-01T06:11:26.950Z,23.71
2018-07-01T06:12:26.946Z,23.67
2018-07-01T06:13:26.939Z,23.70
2018-07-01T06:14:26.932Z,23.74
2018-07-01T06:15:26.928Z,23.64
2018-07-01T06:16:26.927Z,23.73
2018-07-01T06:17:26.918Z,23.74
2018-07-01T06:18:26.910Z,23.73
2018-07-01T06:19:26.902Z,23.67
2018-07-01T06:20:26.932Z,23.73
2018-07-01T06:21:26.918Z,23.70
2018-07-01T06:22:26.907Z,23.69
2018-07-01T06:23:26.881Z,23.73
2018-07-01T06:24:26.931Z,23.71
2018-07-01T06:25:26.869Z,23.67
2018-07-01T06:26:26.866Z,23.73
2018-07-01T06:27:26.857Z,23.71
2018-07-01T06:28:26.852Z,23.77
2018-07-01T06:29:26.846Z,23.73
2018-07-01T06:30:26.848Z,23.71
2018-07-01T06:31:26.834Z,23.71
2018-07-01T06:32:26.828Z,23.81
2018-07-01T06:33:26.822Z,23.71
2018-07-01T06:34:26.816Z,23.71
2018-07-01T06:35:26.812Z,23.74
2018-07-01T06:36:26.803Z,23.69
2018-07-01T06:37:26.799Z,23.76
2018-07-01T06:38:26.792Z,23.81
2018-07-01T06:39:26.787Z,23.74
2018-07-01T06:40:26.781Z,23.81
2018-07-01T06:41:26.776Z,23.92
2018-07-01T06:42:26.768Z,23.79
2018-07-01T06:43:26.763Z,23.89
2018-07-01T06:44:26.758Z,23.95
2018-07-01T06:45:26.755Z,23.91
2018-07-01T06:46:26.745Z,23.92
2018-07-01T06:47:26.740Z,23.94
2018-07-01T06:48:26.734Z,23.89
2018-07-01T06:49:26.771Z,23.88
2018-07-01T06:50:26.722Z,23.81
2018-07-01T06:51:26.717Z,23.79
2018-07-01T06:52:26.711Z,23.79
2018-07-01T06:53:26.709Z,23.76
2018-07-01T06:54:26.698Z,23.88
2018-07-01T06:55:26.693Z,23.79
2018-07-01T06:56:26.720Z,23.88
2018-07-01T06:57:26.685Z,23.79
2018-07-01T06:58:26.678Z,23.79
2018-07-01T06:59:26.675Z,23.79
2018-07-01T07:00:26.665Z,23.74
2018-07-01T07:01:26.660Z,23.66
2018-07-01T07:02:26.721Z,23.82
2018-07-01T07:03:26.646Z,23.70
2018-07-01T07:04:26.642Z,23.76
2018-07-01T07:05:26.635Z,23.73
2018-07-01T07:06:26.621Z,23.66
2018-07-01T07:07:26.623Z,23.63
2018-07-01T07:08:26.618Z,23.67
2018-07-01T07:09:26.612Z,23.64
2018-07-01T07:10:26.606Z,23.71
2018-07-01T07:11:26.615Z,23.64
2018-07-01T07:12:26.596Z,23.73
2018-07-01T07:13:26.589Z,23.73
2018-07-01T07:14:26.581Z,23.67
2018-07-01T07:15:26.583Z,23.85
2018-07-01T07:16:26.571Z,23.77
2018-07-01T07:17:26.560Z,23.81
2018-07-01T07:18:26.559Z,23.81
2018-07-01T07:19:26.552Z,23.81
2018-07-01T07:20:26.547Z,23.79
2018-07-01T07:21:26.541Z,23.84
2018-07-01T07:22:26.535Z,23.84
2018-07-01T07:23:26.528Z,23.88
2018-07-01T07:24:26.554Z,23.85
2018-07-01T07:25:26.516Z,23.91
2018-07-01T07:26:26.507Z,23.89
2018-07-01T07:27:26.507Z,23.91
2018-07-01T07:28:26.500Z,23.94
2018-07-01T07:29:26.499Z,24.00
2018-07-01T07:30:26.488Z,23.99
2018-07-01T07:31:26.482Z,23.96
2018-07-01T07:32:26.478Z,23.96
2018-07-01T07:33:26.462Z,23.94
2018-07-01T07:34:26.462Z,23.94
2018-07-01T07:35:26.457Z,23.92
2018-07-01T07:36:26.453Z,23.95
2018-07-01T07:37:26.447Z,23.92
2018-07-01T07:38:26.440Z,23.96
2018-07-01T07:39:26.435Z,23.95
2018-07-01T07:40:26.433Z,23.95
2018-07-01T07:41:26.423Z,23.99
2018-07-01T07:42:26.416Z,24.01
2018-07-01T07:43:26.411Z,24.07
2018-07-01T07:44:26.406Z,24.07
2018-07-01T07:45:26.401Z,23.99
2018-07-01T07:46:26.395Z,23.96
2018-07-01T07:47:26.391Z,24.04
2018-07-01T07:48:26.381Z,24.07
2018-07-01T07:49:26.376Z,24.09
2018-07-01T07:50:26.369Z,24.16
2018-07-01T07:51:26.364Z,24.10
2018-07-01T07:52:26.360Z,24.16
2018-07-01T07:53:26.355Z,24.18
2018-07-01T07:54:26.346Z,24.24
2018-07-01T07:55:26.339Z,24.29
2018-07-01T07:56:26.335Z,24.22
2018-07-01T07:57:26.331Z,24.24
2018-07-01T07:58:26.322Z,24.18
2018-07-01T07:59:26.318Z,24.25
2018-07-01T08:00:26.312Z,24.25
2018-07-01T08:01:26.309Z,24.31
2018-07-01T08:02:26.300Z,24.36
2018-07-01T08:03:26.294Z,24.28
2018-07-01T08:04:26.290Z,24.32
2018-07-01T08:05:26.284Z,24.29
2018-07-01T08:06:26.277Z,24.24
2018-07-01T08:07:26.320Z,24.36
2018-07-01T08:08:26.268Z,24.29
2018-07-01T08:09:26.262Z,24.26
2018-07-01T08:10:26.253Z,24.31
2018-07-01T08:11:26.248Z,24.32
2018-07-01T08:12:26.246Z,24.34
2018-07-01T08:13:26.236Z,24.37
2018-07-01T08:14:26.229Z,24.37
2018-07-01T08:15:26.287Z,24.41
2018-07-01T08:16:26.220Z,24.40
2018-07-01T08:17:26.216Z,24.47
2018-07-01T08:18:26.210Z,24.44
2018-07-01T08:19:26.200Z,24.53
2018-07-01T08:20:26.197Z,24.56
2018-07-01T08:21:26.192Z,24.55
2018-07-01T08:22:26.185Z,24.63
2018-07-01T08:23:26.192Z,24.68
2018-07-01T08:24:26.173Z,24.79
2018-07-01T08:25:26.170Z,24.81
2018-07-01T08:26:26.186Z,24.88
2018-07-01T08:27:26.158Z,24.88
2018-07-01T08:28:26.149Z,24.84
2018-07-01T08:29:26.146Z,24.84
2018-07-01T08:30:26.143Z,24.89
2018-07-01T08:31:26.134Z,24.94
2018-07-01T08:32:26.136Z,24.89
2018-07-01T08:33:26.124Z,24.92
2018-07-01T08:34:26.124Z,24.96
2018-07-01T08:35:26.114Z,25.00
2018-07-01T08:36:26.105Z,24.97
2018-07-01T08:37:26.100Z,24.99
2018-07-01T08:38:26.097Z,24.97
2018-07-01T08:39:26.101Z,25.00
2018-07-01T08:40:26.086Z,24.99
2018-07-01T08:41:26.080Z,24.99
2018-07-01T08:42:26.071Z,25.00
2018-07-01T08:43:26.066Z,24.92
2018-07-01T08:44:26.062Z,24.88
2018-07-01T08:45:26.056Z,24.92
2018-07-01T08:46:26.051Z,24.99
2018-07-01T08:47:26.043Z,25.00
2018-07-01T08:48:26.039Z,25.03
2018-07-01T08:49:26.034Z,25.03
2018-07-01T08:50:26.028Z,25.26
2018-07-01T08:51:26.022Z,25.21
2018-07-01T08:52:26.065Z,25.24
2018-07-01T08:53:26.010Z,25.40
2018-07-01T08:54:26.006Z,25.51
2018-07-01T08:55:26.003Z,25.55
2018-07-01T08:56:25.994Z,25.67
2018-07-01T08:57:25.988Z,25.59
2018-07-01T08:58:25.986Z,25.77
2018-07-01T08:59:25.977Z,25.78
2018-07-01T09:00:25.968Z,25.81
2018-07-01T09:01:25.965Z,25.89
2018-07-01T09:02:25.959Z,25.98
2018-07-01T09:03:25.954Z,26.06
2018-07-01T09:04:25.945Z,26.10
2018-07-01T09:05:25.941Z,26.06
2018-07-01T09:06:25.938Z,25.98
2018-07-01T09:07:25.932Z,26.01
2018-07-01T09:08:25.941Z,26.10
2018-07-01T09:09:25.916Z,26.11
2018-07-01T09:10:25.911Z,26.27
2018-07-01T09:11:25.905Z,26.30
2018-07-01T09:12:25.906Z,26.36
2018-07-01T09:13:25.896Z,26.34
2018-07-01T09:14:25.888Z,26.31
2018-07-01T09:15:25.878Z,26.30
2018-07-01T09:16:25.876Z,26.39
2018-07-01T09:17:25.886Z,26.45
2018-07-01T09:18:25.867Z,26.45
2018-07-01T09:19:25.860Z,26.51
2018-07-01T09:20:25.855Z,26.52
2018-07-01T09:21:25.848Z,26.59
2018-07-01T09:22:25.852Z,26.53
2018-07-01T09:23:25.870Z,26.56
2018-07-01T09:24:25.829Z,26.61
2018-07-01T09:25:25.824Z,26.68
2018-07-01T09:26:25.819Z,26.67
2018-07-01T09:27:25.835Z,26.68
2018-07-01T09:28:25.809Z,26.68
2018-07-01T09:29:25.806Z,26.76
2018-07-01T09:30:25.794Z,26.68
2018-07-01T09:31:25.791Z,26.79
2018-07-01T09:32:25.786Z,26.68
2018-07-01T09:33:25.780Z,26.76
2018-07-01T09:34:25.880Z,26.76
2018-07-01T09:35:25.766Z,26.76
2018-07-01T09:36:25.766Z,26.81
2018-07-01T09:37:25.755Z,26.71
2018-07-01T09:38:25.750Z,26.82
2018-07-01T09:39:25.744Z,26.86
2018-07-01T09:40:25.740Z,26.81
2018-07-01T09:41:25.759Z,26.86
2018-07-01T09:42:25.730Z,26.92
2018-07-01T09:43:25.840Z,26.82
2018-07-01T09:44:25.718Z,26.86
2018-07-01T09:45:25.713Z,26.88
2018-07-01T09:46:25.703Z,26.89
2018-07-01T09:47:25.700Z,26.91
2018-07-01T09:48:25.692Z,26.91
2018-07-01T09:49:25.687Z,26.98
2018-07-01T09:50:26.436Z,27.00
2018-07-01T09:51:25.675Z,27.05
2018-07-01T09:52:25.670Z,27.07
2018-07-01T09:53:25.663Z,27.10
2018-07-01T09:54:25.658Z,27.03
2018-07-01T09:55:25.652Z,27.08
2018-07-01T09:56:25.648Z,27.15
2018-07-01T09:57:25.641Z,27.15
2018-07-01T09:58:25.634Z,27.10
2018-07-01T09:59:25.634Z,27.07
2018-07-01T10:00:25.625Z,27.08
2018-07-01T10:01:25.618Z,27.22
2018-07-01T10:02:25.611Z,27.15
2018-07-01T10:03:25.607Z,27.18
2018-07-01T10:04:25.601Z,27.15
2018-07-01T10:05:25.597Z,27.19
2018-07-01T10:06:25.598Z,27.28
2018-07-01T10:07:25.592Z,27.26
2018-07-01T10:08:25.584Z,27.29
2018-07-01T10:09:25.574Z,27.30
2018-07-01T10:10:25.567Z,27.16
2018-07-01T10:11:25.563Z,27.22
2018-07-01T10:12:25.560Z,27.25
2018-07-01T10:13:25.554Z,27.23
2018-07-01T10:14:25.554Z,27.23
2018-07-01T10:15:25.542Z,27.23
2018-07-01T10:16:25.539Z,27.23
2018-07-01T10:17:25.536Z,27.29
2018-07-01T10:18:25.529Z,27.28
2018-07-01T10:19:25.538Z,27.30
2018-07-01T10:20:25.516Z,27.37
2018-07-01T10:21:25.511Z,27.41
2018-07-01T10:22:25.505Z,27.33
2018-07-01T10:23:25.502Z,27.37
2018-07-01T10:24:25.518Z,27.33
2018-07-01T10:25:25.489Z,27.30
2018-07-01T10:26:25.547Z,27.34
2018-07-01T10:27:25.479Z,27.34
2018-07-01T10:28:25.990Z,27.41
2018-07-01T10:29:25.472Z,27.43
2018-07-01T10:30:25.461Z,27.41
2018-07-01T10:31:25.457Z,27.38
2018-07-01T10:32:25.500Z,27.40
2018-07-01T10:33:25.452Z,27.40
2018-07-01T10:34:25.461Z,27.35
2018-07-01T10:35:25.435Z,27.38
2018-07-01T10:36:25.429Z,27.43
2018-07-01T10:37:25.430Z,27.45
2018-07-01T10:38:25.423Z,27.47
2018-07-01T10:39:25.413Z,27.47
2018-07-01T10:40:25.408Z,27.50
2018-07-01T10:41:25.421Z,27.44
2018-07-01T10:42:25.406Z,27.47
2018-07-01T10:43:25.395Z,27.57
2018-07-01T10:44:25.388Z,27.52
2018-07-01T10:45:25.383Z,27.55
2018-07-01T10:46:25.380Z,27.57
2018-07-01T10:47:25.374Z,27.66
2018-07-01T10:48:25.369Z,27.67
2018-07-01T10:49:25.366Z,27.67
2018-07-01T10:50:25.356Z,27.66
2018-07-01T10:51:25.405Z,27.67
2018-07-01T10:52:25.348Z,27.68
2018-07-01T10:53:25.344Z,27.64
2018-07-01T10:54:25.387Z,27.72
2018-07-01T10:55:25.330Z,27.71
2018-07-01T10:56:25.324Z,27.72
2018-07-01T10:57:25.321Z,27.73
2018-07-01T10:58:25.322Z,27.73
2018-07-01T10:59:25.318Z,27.73
2018-07-01T11:00:25.305Z,27.81
2018-07-01T11:01:25.298Z,27.75
2018-07-01T11:02:25.295Z,27.79
2018-07-01T11:03:25.317Z,27.73
2018-07-01T11:04:25.301Z,27.75
2018-07-01T11:05:25.280Z,27.76
2018-07-01T11:06:25.375Z,27.71
2018-07-01T11:07:25.271Z,27.76
2018-07-01T11:08:25.265Z,27.78
2018-07-01T11:09:25.265Z,27.72
2018-07-01T11:10:25.254Z,27.76
2018-07-01T11:11:25.249Z,27.79
2018-07-01T11:12:25.245Z,27.82
2018-07-01T11:13:25.242Z,27.68
2018-07-01T11:14:25.235Z,27.68
2018-07-01T11:15:25.227Z,27.71
2018-07-01T11:16:25.227Z,27.66
2018-07-01T11:17:25.220Z,27.63
2018-07-01T11:18:25.213Z,27.67
2018-07-01T11:19:25.215Z,27.72
2018-07-01T11:20:25.293Z,27.66
2018-07-01T11:21:25.205Z,27.67
2018-07-01T11:22:25.204Z,27.72
2018-07-01T11:23:25.188Z,27.72
2018-07-01T11:24:25.238Z,27.67
2018-07-01T11:25:25.180Z,27.79
2018-07-01T11:26:25.172Z,27.72
2018-07-01T11:27:25.244Z,27.68
2018-07-01T11:28:25.161Z,27.71
2018-07-01T11:29:25.158Z,27.75
2018-07-01T11:30:25.155Z,27.81
2018-07-01T11:31:25.149Z,27.79
2018-07-01T11:32:25.141Z,27.82
2018-07-01T11:33:25.136Z,27.91
2018-07-01T11:34:25.133Z,27.86
2018-07-01T11:35:25.127Z,27.82
2018-07-01T11:36:25.124Z,27.85
2018-07-01T11:37:25.118Z,27.82
2018-07-01T11:38:25.112Z,27.82
2018-07-01T11:39:25.106Z,27.82
2018-07-01T11:40:25.104Z,27.76
2018-07-01T11:41:25.097Z,27.79
2018-07-01T11:42:25.093Z,27.81
2018-07-01T11:43:25.086Z,27.85
2018-07-01T11:44:25.081Z,27.83
2018-07-01T11:45:25.078Z,27.83
2018-07-01T11:46:25.111Z,27.85
2018-07-01T11:47:25.065Z,27.86
2018-07-01T11:48:25.063Z,27.95
2018-07-01T11:49:25.057Z,27.94
2018-07-01T11:50:25.055Z,27.81
2018-07-01T11:51:25.051Z,27.83
2018-07-01T11:52:25.119Z,27.90
2018-07-01T11:53:25.038Z,27.82
2018-07-01T11:54:25.032Z,27.81
2018-07-01T11:55:25.029Z,27.83
2018-07-01T11:56:25.025Z,27.86
2018-07-01T11:57:25.024Z,27.91
2018-07-01T11:58:25.013Z,27.88
2018-07-01T11:59:25.033Z,27.94
2018-07-01T12:00:25.035Z,27.94
2018-07-01T12:01:24.999Z,27.86
2018-07-01T12:02:24.991Z,27.88
2018-07-01T12:03:24.987Z,27.86
2018-07-01T12:04:24.982Z,27.79
2018-07-01T12:05:25.047Z,27.85
2018-07-01T12:06:24.972Z,27.85
2018-07-01T12:07:24.967Z,27.88
2018-07-01T12:08:24.966Z,27.85
2018-07-01T12:09:24.959Z,27.81
2018-07-01T12:10:24.957Z,27.82
2018-07-01T12:11:24.947Z,27.67
2018-07-01T12:12:24.942Z,27.57
2018-07-01T12:13:24.936Z,27.55
2018-07-01T12:14:24.931Z,27.52
2018-07-01T12:15:24.927Z,27.43
2018-07-01T12:16:24.922Z,27.41
2018-07-01T12:17:24.916Z,27.41
2018-07-01T12:18:24.911Z,27.30
2018-07-01T12:19:24.907Z,27.30
2018-07-01T12:20:24.903Z,27.26
2018-07-01T12:21:24.897Z,27.28
2018-07-01T12:22:24.892Z,27.16
2018-07-01T12:23:24.977Z,27.10
2018-07-01T12:24:24.881Z,27.05
2018-07-01T12:25:24.876Z,27.05
2018-07-01T12:26:24.871Z,27.08
2018-07-01T12:27:24.866Z,26.98
2018-07-01T12:28:24.861Z,27.07
2018-07-01T12:29:24.855Z,27.04
2018-07-01T12:30:24.851Z,26.97
2018-07-01T12:31:24.845Z,26.92
2018-07-01T12:32:24.840Z,26.96
2018-07-01T12:33:24.835Z,26.88
2018-07-01T12:34:24.830Z,26.97
2018-07-01T12:35:24.824Z,26.96
2018-07-01T12:36:24.858Z,26.96
2018-07-01T12:37:24.814Z,26.92
2018-07-01T12:38:24.808Z,26.85
2018-07-01T12:39:24.801Z,26.96
2018-07-01T12:40:24.798Z,26.96
2018-07-01T12:41:24.793Z,26.85
2018-07-01T12:42:24.837Z,26.97
2018-07-01T12:43:24.786Z,26.96
2018-07-01T12:44:24.777Z,26.91
2018-07-01T12:45:24.771Z,26.85
2018-07-01T12:46:24.764Z,26.79
2018-07-01T12:47:24.764Z,26.82
2018-07-01T12:48:24.754Z,26.81
2018-07-01T12:49:24.750Z,26.79
2018-07-01T12:50:24.740Z,26.74
2018-07-01T12:51:24.745Z,26.88
2018-07-01T12:52:24.733Z,26.79